सभी
Golden Grove Airport (Golden Grove, Western Australia) YGGE मौसम
|
Golden Grove, Western Australia (YGGE)
स्वच्छ आकाश
हल्की हवाएं |
|
23 °C |
YGGE Terminal Area Forecast
| Date | Time (AWST) | Flight Rules | Wind Dir. | Speed | Type | Height AGL (ft) | Visibility | Remarks | ||||||
|---|---|---|---|---|---|---|---|---|---|---|---|---|---|---|
| 05-मई | 17:00 | VFR | 130° | 10 kt | Clouds and Visibility are OK | >= 6 miles | ||||||||
| 05-मई | 16:00 | VFR | 100° | 10 kt | Clouds and Visibility are OK | >= 6 miles | ||||||||
| 05-मई | 15:00 | VFR | 100° | 10 kt | Clouds and Visibility are OK | >= 6 miles | ||||||||
| 05-मई | 14:00 | VFR | 100° | 10 kt | Clouds and Visibility are OK | >= 6 miles | ||||||||
Recent YGGE METAR history
| Date | Time (AWST) | Flight Rules | Wind Dir. | Speed | Type | Height AGL (ft) | Visibility | Temp (°C) | Temp (°F) | Dew Point (°C) | Dew Point (°F) | Rel. Humid. | Pressure | Density Altitude | Remarks |
|---|---|---|---|---|---|---|---|---|---|---|---|---|---|---|---|
| 05-मई | 14:00 | VFR | 70° | 8 kt | 10000 meters | 23° | 73° | 5° | 41° | 31% | 1023 mb | 2,093 ft | |||
| 05-मई | 13:00 | VFR | 70° | 8 kt | 10000 meters | 22° | 71° | 6° | 42° | 35% | 1023 mb | 1,973 ft | |||
| 05-मई | 12:00 | VFR | 60° | 9 kt | 10000 meters | 21° | 69° | 7° | 44° | 40% | 1024 mb | 1,824 ft | |||
| 05-मई | 11:00 | VFR | 20° | 11 kt | 10000 meters | 20° | 68° | 7° | 44° | 43% | 1025 mb | 1,674 ft | |||
| 05-मई | 10:00 | VFR | 40° | 13 kt | 10000 meters | 18° | 64° | 7° | 44° | 49% | 1025 mb | 1,434 ft | |||
| 05-मई | 09:00 | VFR | 60° | 12 kt | 10000 meters | 17° | 62° | 7° | 44° | 52% | 1026 mb | 1,285 ft | |||
| 05-मई | 08:00 | VFR | 50° | 10 kt | 10000 meters | 14° | 57° | 7° | 44° | 63% | 1025 mb | 954 ft | |||
| 05-मई | 07:00 | VFR | 90° | 6 kt | 10000 meters | 11° | 51° | 6° | 42° | 71% | 1025 mb | 594 ft | |||
| 05-मई | 06:00 | VFR | 90° | 9 kt | 10000 meters | 12° | 53° | 6° | 42° | 67% | 1024 mb | 744 ft | |||
| 05-मई | 05:00 | VFR | 80° | 10 kt | 10000 meters | 12° | 53° | 5° | 41° | 62% | 1024 mb | 744 ft | |||
| 05-मई | 04:00 | VFR | 100° | 8 kt | 10000 meters | 11° | 51° | 5° | 41° | 66% | 1024 mb | 624 ft | |||
| 05-मई | 03:00 | VFR | 110° | 7 kt | 10000 meters | 11° | 51° | 5° | 41° | 66% | 1023 mb | 653 ft | |||
| 05-मई | 02:00 | VFR | 110° | 7 kt | 10000 meters | 11° | 51° | 5° | 41° | 66% | 1023 mb | 653 ft | |||
| 05-मई | 01:00 | VFR | 110° | 5 kt | 10000 meters | 11° | 51° | 5° | 41° | 66% | 1024 mb | 624 ft | |||
| 05-मई | 00:00 | VFR | 90° | 6 kt | 10000 meters | 12° | 53° | 5° | 41° | 62% | 1024 mb | 744 ft | |||
| 04-मई | 23:00 | VFR | 100° | 6 kt | 10000 meters | 13° | 55° | 5° | 41° | 58% | 1024 mb | 864 ft | |||
| 04-मई | 22:00 | VFR | 80° | 6 kt | 10000 meters | 15° | 59° | 5° | 41° | 51% | 1024 mb | 1,104 ft | |||
| 04-मई | 21:00 | VFR | 120° | 6 kt | 10000 meters | 15° | 59° | 4° | 39° | 48% | 1024 mb | 1,104 ft | |||
| 04-मई | 20:00 | VFR | 100° | 5 kt | 10000 meters | 14° | 57° | 4° | 39° | 51% | 1024 mb | 984 ft | |||
| 04-मई | 19:00 | VFR | 90° | 3 kt | 10000 meters | 16° | 60° | 4° | 39° | 45% | 1023 mb | 1,253 ft | |||
| 04-मई | 18:00 | VFR | 90° | 5 kt | 10000 meters | 20° | 68° | 4° | 39° | 35% | 1023 mb | 1,733 ft | |||
| 04-मई | 17:00 | VFR | 80° | 9 kt | 10000 meters | 22° | 71° | 4° | 39° | 31% | 1023 mb | 1,973 ft | |||
| 04-मई | 16:00 | VFR | 90° | 10 kt | 10000 meters | 22° | 71° | 4° | 39° | 31% | 1022 mb | 2,003 ft | |||
| 04-मई | 15:00 | VFR | 90° | 12 kt | 10000 meters | 22° | 71° | 5° | 41° | 33% | 1022 mb | 2,003 ft |
लॉगिन
| Your browser is unsupported. अपना ब्राऊजर अपग्रेड करें |
